sensor_id;sensor_type;location;lat;lon;timestamp;P1;P2;P0
78408;PMS5003;67697;50.750;-3.270;2023-07-31T00:00:55;1;1;
78408;PMS5003;67697;50.750;-3.270;2023-07-31T00:03:21;2;1;
78408;PMS5003;67697;50.750;-3.270;2023-07-31T00:05:46;2;1;
78408;PMS5003;67697;50.750;-3.270;2023-07-31T00:10:38;1;1;
78408;PMS5003;67697;50.750;-3.270;2023-07-31T00:13:03;2;1;
78408;PMS5003;67697;50.750;-3.270;2023-07-31T00:15:29;3;2;
78408;PMS5003;67697;50.750;-3.270;2023-07-31T00:17:54;0;0;
78408;PMS5003;67697;50.750;-3.270;2023-07-31T00:20:20;1;1;
78408;PMS5003;67697;50.750;-3.270;2023-07-31T00:22:45;1;1;
78408;PMS5003;67697;50.750;-3.270;2023-07-31T00:25:11;1;1;
78408;PMS5003;67697;50.750;-3.270;2023-07-31T00:27:36;1;1;
78408;PMS5003;67697;50.750;-3.270;2023-07-31T00:30:03;1;0;
78408;PMS5003;67697;50.750;-3.270;2023-07-31T00:32:27;2;2;
78408;PMS5003;67697;50.750;-3.270;2023-07-31T00:34:54;1;1;
78408;PMS5003;67697;50.750;-3.270;2023-07-31T00:37:19;1;1;
78408;PMS5003;67697;50.750;-3.270;2023-07-31T00:39:44;3;3;
78408;PMS5003;67697;50.750;-3.270;2023-07-31T00:42:10;2;2;
78408;PMS5003;67697;50.750;-3.270;2023-07-31T00:44:35;2;2;
78408;PMS5003;67697;50.750;-3.270;2023-07-31T00:47:01;2;1;
78408;PMS5003;67697;50.750;-3.270;2023-07-31T00:49:26;0;0;
78408;PMS5003;67697;50.750;-3.270;2023-07-31T00:51:51;0;0;
78408;PMS5003;67697;50.750;-3.270;2023-07-31T00:54:17;0;0;
78408;PMS5003;67697;50.750;-3.270;2023-07-31T00:56:43;0;0;
78408;PMS5003;67697;50.750;-3.270;2023-07-31T00:59:08;1;1;
78408;PMS5003;67697;50.750;-3.270;2023-07-31T01:01:34;1;1;
78408;PMS5003;67697;50.750;-3.270;2023-07-31T01:03:59;1;1;
78408;PMS5003;67697;50.750;-3.270;2023-07-31T01:06:28;2;0;
78408;PMS5003;67697;50.750;-3.270;2023-07-31T01:08:53;0;0;
78408;PMS5003;67697;50.750;-3.270;2023-07-31T01:11:17;0;0;
78408;PMS5003;67697;50.750;-3.270;2023-07-31T01:13:42;0;0;
78408;PMS5003;67697;50.750;-3.270;2023-07-31T01:16:07;0;0;
78408;PMS5003;67697;50.750;-3.270;2023-07-31T01:18:32;1;1;
78408;PMS5003;67697;50.750;-3.270;2023-07-31T01:21:06;0;0;
78408;PMS5003;67697;50.750;-3.270;2023-07-31T01:23:29;1;1;
78408;PMS5003;67697;50.750;-3.270;2023-07-31T01:25:53;0;0;
78408;PMS5003;67697;50.750;-3.270;2023-07-31T01:28:16;0;0;
78408;PMS5003;67697;50.750;-3.270;2023-07-31T01:30:41;0;0;
78408;PMS5003;67697;50.750;-3.270;2023-07-31T01:33:05;1;1;
78408;PMS5003;67697;50.750;-3.270;2023-07-31T01:35:31;2;1;
78408;PMS5003;67697;50.750;-3.270;2023-07-31T01:37:57;1;1;
78408;PMS5003;67697;50.750;-3.270;2023-07-31T01:40:23;0;0;
78408;PMS5003;67697;50.750;-3.270;2023-07-31T01:42:48;0;0;
78408;PMS5003;67697;50.750;-3.270;2023-07-31T01:45:13;1;1;
78408;PMS5003;67697;50.750;-3.270;2023-07-31T01:47:39;0;0;
78408;PMS5003;67697;50.750;-3.270;2023-07-31T01:50:05;0;0;
78408;PMS5003;67697;50.750;-3.270;2023-07-31T01:52:30;1;1;
78408;PMS5003;67697;50.750;-3.270;2023-07-31T01:54:55;0;0;
78408;PMS5003;67697;50.750;-3.270;2023-07-31T01:57:21;0;0;
78408;PMS5003;67697;50.750;-3.270;2023-07-31T01:59:46;0;0;
78408;PMS5003;67697;50.750;-3.270;2023-07-31T02:02:12;0;0;
78408;PMS5003;67697;50.750;-3.270;2023-07-31T02:04:37;0;0;
78408;PMS5003;67697;50.750;-3.270;2023-07-31T02:07:03;0;0;
78408;PMS5003;67697;50.750;-3.270;2023-07-31T02:09:28;0;0;
78408;PMS5003;67697;50.750;-3.270;2023-07-31T02:11:54;0;0;
78408;PMS5003;67697;50.750;-3.270;2023-07-31T02:14:20;0;0;
78408;PMS5003;67697;50.750;-3.270;2023-07-31T02:16:45;0;0;
78408;PMS5003;67697;50.750;-3.270;2023-07-31T02:19:11;0;0;
78408;PMS5003;67697;50.750;-3.270;2023-07-31T02:21:36;1;1;
78408;PMS5003;67697;50.750;-3.270;2023-07-31T02:24:02;1;0;
78408;PMS5003;67697;50.750;-3.270;2023-07-31T02:26:27;0;0;
78408;PMS5003;67697;50.750;-3.270;2023-07-31T02:28:53;1;1;
78408;PMS5003;67697;50.750;-3.270;2023-07-31T02:31:18;0;0;
78408;PMS5003;67697;50.750;-3.270;2023-07-31T02:33:49;0;0;
78408;PMS5003;67697;50.750;-3.270;2023-07-31T02:36:10;0;0;
78408;PMS5003;67697;50.750;-3.270;2023-07-31T02:38:35;0;0;
78408;PMS5003;67697;50.750;-3.270;2023-07-31T02:41:00;0;0;
78408;PMS5003;67697;50.750;-3.270;2023-07-31T02:43:26;0;0;
78408;PMS5003;67697;50.750;-3.270;2023-07-31T02:45:52;0;0;
78408;PMS5003;67697;50.750;-3.270;2023-07-31T02:48:17;2;0;
78408;PMS5003;67697;50.750;-3.270;2023-07-31T02:50:42;0;0;
78408;PMS5003;67697;50.750;-3.270;2023-07-31T02:53:08;0;0;
78408;PMS5003;67697;50.750;-3.270;2023-07-31T02:55:34;1;1;
78408;PMS5003;67697;50.750;-3.270;2023-07-31T02:57:59;2;0;
78408;PMS5003;67697;50.750;-3.270;2023-07-31T03:00:25;0;0;
78408;PMS5003;67697;50.750;-3.270;2023-07-31T03:02:50;1;1;
78408;PMS5003;67697;50.750;-3.270;2023-07-31T03:05:16;0;0;
78408;PMS5003;67697;50.750;-3.270;2023-07-31T03:07:41;1;1;
78408;PMS5003;67697;50.750;-3.270;2023-07-31T03:10:07;0;0;
78408;PMS5003;67697;50.750;-3.270;2023-07-31T03:12:32;0;0;
78408;PMS5003;67697;50.750;-3.270;2023-07-31T03:14:58;0;0;
78408;PMS5003;67697;50.750;-3.270;2023-07-31T03:17:23;0;0;
78408;PMS5003;67697;50.750;-3.270;2023-07-31T03:19:49;0;0;
78408;PMS5003;67697;50.750;-3.270;2023-07-31T03:22:14;0;0;
78408;PMS5003;67697;50.750;-3.270;2023-07-31T03:24:40;0;0;
78408;PMS5003;67697;50.750;-3.270;2023-07-31T03:27:11;0;0;
78408;PMS5003;67697;50.750;-3.270;2023-07-31T03:29:31;0;0;
78408;PMS5003;67697;50.750;-3.270;2023-07-31T03:31:56;0;0;
78408;PMS5003;67697;50.750;-3.270;2023-07-31T03:34:22;0;0;
78408;PMS5003;67697;50.750;-3.270;2023-07-31T03:36:47;0;0;
78408;PMS5003;67697;50.750;-3.270;2023-07-31T03:39:13;0;0;
78408;PMS5003;67697;50.750;-3.270;2023-07-31T03:41:38;2;0;
78408;PMS5003;67697;50.750;-3.270;2023-07-31T03:44:04;0;0;
78408;PMS5003;67697;50.750;-3.270;2023-07-31T03:46:29;0;0;
78408;PMS5003;67697;50.750;-3.270;2023-07-31T03:48:55;0;0;
78408;PMS5003;67697;50.750;-3.270;2023-07-31T03:51:20;1;0;
78408;PMS5003;67697;50.750;-3.270;2023-07-31T03:53:46;0;0;
78408;PMS5003;67697;50.750;-3.270;2023-07-31T03:56:11;3;2;
78408;PMS5003;67697;50.750;-3.270;2023-07-31T03:58:37;0;0;
78408;PMS5003;67697;50.750;-3.270;2023-07-31T04:01:03;1;1;
78408;PMS5003;67697;50.750;-3.270;2023-07-31T04:03:28;1;1;
78408;PMS5003;67697;50.750;-3.270;2023-07-31T04:05:54;0;0;
78408;PMS5003;67697;50.750;-3.270;2023-07-31T04:08:20;0;0;
78408;PMS5003;67697;50.750;-3.270;2023-07-31T04:10:44;1;1;
78408;PMS5003;67697;50.750;-3.270;2023-07-31T04:13:10;1;1;
78408;PMS5003;67697;50.750;-3.270;2023-07-31T04:15:35;0;0;
78408;PMS5003;67697;50.750;-3.270;2023-07-31T04:18:01;1;1;
78408;PMS5003;67697;50.750;-3.270;2023-07-31T04:20:28;2;1;
78408;PMS5003;67697;50.750;-3.270;2023-07-31T04:22:52;0;0;
78408;PMS5003;67697;50.750;-3.270;2023-07-31T04:25:17;1;1;
78408;PMS5003;67697;50.750;-3.270;2023-07-31T04:27:43;0;0;
78408;PMS5003;67697;50.750;-3.270;2023-07-31T04:30:09;0;0;
78408;PMS5003;67697;50.750;-3.270;2023-07-31T04:32:34;2;1;
78408;PMS5003;67697;50.750;-3.270;2023-07-31T04:34:59;0;0;
78408;PMS5003;67697;50.750;-3.270;2023-07-31T04:37:25;0;0;
78408;PMS5003;67697;50.750;-3.270;2023-07-31T04:39:50;2;1;
78408;PMS5003;67697;50.750;-3.270;2023-07-31T04:42:16;1;1;
78408;PMS5003;67697;50.750;-3.270;2023-07-31T04:44:42;0;0;
78408;PMS5003;67697;50.750;-3.270;2023-07-31T04:47:08;0;0;
78408;PMS5003;67697;50.750;-3.270;2023-07-31T04:49:33;1;1;
78408;PMS5003;67697;50.750;-3.270;2023-07-31T04:51:58;2;1;
78408;PMS5003;67697;50.750;-3.270;2023-07-31T04:54:24;1;1;
78408;PMS5003;67697;50.750;-3.270;2023-07-31T04:56:49;1;1;
78408;PMS5003;67697;50.750;-3.270;2023-07-31T04:59:15;0;0;
78408;PMS5003;67697;50.750;-3.270;2023-07-31T05:01:40;1;1;
78408;PMS5003;67697;50.750;-3.270;2023-07-31T05:06:32;0;0;
78408;PMS5003;67697;50.750;-3.270;2023-07-31T05:08:57;1;1;
78408;PMS5003;67697;50.750;-3.270;2023-07-31T05:11:22;0;0;
78408;PMS5003;67697;50.750;-3.270;2023-07-31T05:13:49;1;1;
78408;PMS5003;67697;50.750;-3.270;2023-07-31T05:16:14;0;0;
78408;PMS5003;67697;50.750;-3.270;2023-07-31T05:18:39;0;0;
78408;PMS5003;67697;50.750;-3.270;2023-07-31T05:21:04;0;0;
78408;PMS5003;67697;50.750;-3.270;2023-07-31T05:23:30;0;0;
78408;PMS5003;67697;50.750;-3.270;2023-07-31T05:26:01;1;1;
78408;PMS5003;67697;50.750;-3.270;2023-07-31T05:28:24;1;1;
78408;PMS5003;67697;50.750;-3.270;2023-07-31T05:30:47;2;0;
78408;PMS5003;67697;50.750;-3.270;2023-07-31T05:33:12;0;0;
78408;PMS5003;67697;50.750;-3.270;2023-07-31T05:35:37;1;0;
78408;PMS5003;67697;50.750;-3.270;2023-07-31T05:38:03;0;0;
78408;PMS5003;67697;50.750;-3.270;2023-07-31T05:40:29;0;0;
78408;PMS5003;67697;50.750;-3.270;2023-07-31T05:42:54;0;0;
78408;PMS5003;67697;50.750;-3.270;2023-07-31T05:45:20;1;1;
78408;PMS5003;67697;50.750;-3.270;2023-07-31T05:47:45;1;1;
78408;PMS5003;67697;50.750;-3.270;2023-07-31T05:50:11;2;1;
78408;PMS5003;67697;50.750;-3.270;2023-07-31T05:52:36;0;0;
78408;PMS5003;67697;50.750;-3.270;2023-07-31T05:55:01;0;0;
78408;PMS5003;67697;50.750;-3.270;2023-07-31T05:57:27;1;1;
78408;PMS5003;67697;50.750;-3.270;2023-07-31T05:59:57;1;1;
78408;PMS5003;67697;50.750;-3.270;2023-07-31T06:02:18;0;0;
78408;PMS5003;67697;50.750;-3.270;2023-07-31T06:04:43;2;1;
78408;PMS5003;67697;50.750;-3.270;2023-07-31T06:09:35;2;2;
78408;PMS5003;67697;50.750;-3.270;2023-07-31T06:12:00;0;0;
78408;PMS5003;67697;50.750;-3.270;2023-07-31T06:14:26;2;0;
78408;PMS5003;67697;50.750;-3.270;2023-07-31T06:16:51;1;1;
78408;PMS5003;67697;50.750;-3.270;2023-07-31T06:19:16;0;0;
78408;PMS5003;67697;50.750;-3.270;2023-07-31T06:21:42;1;1;
78408;PMS5003;67697;50.750;-3.270;2023-07-31T06:24:08;1;1;
78408;PMS5003;67697;50.750;-3.270;2023-07-31T06:26:33;1;1;
78408;PMS5003;67697;50.750;-3.270;2023-07-31T06:28:59;1;1;
78408;PMS5003;67697;50.750;-3.270;2023-07-31T06:31:24;1;0;
78408;PMS5003;67697;50.750;-3.270;2023-07-31T06:33:50;1;1;
78408;PMS5003;67697;50.750;-3.270;2023-07-31T06:36:16;4;1;
78408;PMS5003;67697;50.750;-3.270;2023-07-31T06:38:41;3;3;
78408;PMS5003;67697;50.750;-3.270;2023-07-31T06:41:06;3;3;
78408;PMS5003;67697;50.750;-3.270;2023-07-31T06:43:32;3;3;
78408;PMS5003;67697;50.750;-3.270;2023-07-31T06:45:59;2;2;
78408;PMS5003;67697;50.750;-3.270;2023-07-31T06:48:23;3;2;
78408;PMS5003;67697;50.750;-3.270;2023-07-31T06:50:48;1;1;
78408;PMS5003;67697;50.750;-3.270;2023-07-31T06:53:14;4;4;
78408;PMS5003;67697;50.750;-3.270;2023-07-31T06:55:39;3;3;
78408;PMS5003;67697;50.750;-3.270;2023-07-31T06:58:05;5;5;
78408;PMS5003;67697;50.750;-3.270;2023-07-31T07:00:30;5;3;
78408;PMS5003;67697;50.750;-3.270;2023-07-31T07:02:56;4;3;
78408;PMS5003;67697;50.750;-3.270;2023-07-31T07:05:21;5;5;
78408;PMS5003;67697;50.750;-3.270;2023-07-31T07:07:48;5;4;
78408;PMS5003;67697;50.750;-3.270;2023-07-31T07:10:13;4;4;
78408;PMS5003;67697;50.750;-3.270;2023-07-31T07:12:38;4;4;
78408;PMS5003;67697;50.750;-3.270;2023-07-31T07:15:04;4;4;
78408;PMS5003;67697;50.750;-3.270;2023-07-31T07:17:29;6;6;
78408;PMS5003;67697;50.750;-3.270;2023-07-31T07:19:54;4;4;
78408;PMS5003;67697;50.750;-3.270;2023-07-31T07:22:20;4;4;
78408;PMS5003;67697;50.750;-3.270;2023-07-31T07:24:45;4;4;
78408;PMS5003;67697;50.750;-3.270;2023-07-31T07:27:11;4;4;
78408;PMS5003;67697;50.750;-3.270;2023-07-31T07:29:38;7;7;
78408;PMS5003;67697;50.750;-3.270;2023-07-31T07:32:03;4;3;
78408;PMS5003;67697;50.750;-3.270;2023-07-31T07:34:28;3;2;
78408;PMS5003;67697;50.750;-3.270;2023-07-31T07:36:53;3;3;
78408;PMS5003;67697;50.750;-3.270;2023-07-31T07:39:20;3;3;
78408;PMS5003;67697;50.750;-3.270;2023-07-31T07:41:45;3;3;
78408;PMS5003;67697;50.750;-3.270;2023-07-31T07:44:10;5;4;
78408;PMS5003;67697;50.750;-3.270;2023-07-31T07:46:36;1;1;
78408;PMS5003;67697;50.750;-3.270;2023-07-31T07:49:01;5;5;
78408;PMS5003;67697;50.750;-3.270;2023-07-31T07:51:26;5;5;
78408;PMS5003;67697;50.750;-3.270;2023-07-31T07:53:53;4;4;
78408;PMS5003;67697;50.750;-3.270;2023-07-31T07:56:17;5;5;
78408;PMS5003;67697;50.750;-3.270;2023-07-31T07:58:43;5;5;
78408;PMS5003;67697;50.750;-3.270;2023-07-31T08:03:34;6;4;
78408;PMS5003;67697;50.750;-3.270;2023-07-31T08:05:59;4;4;
78408;PMS5003;67697;50.750;-3.270;2023-07-31T08:08:25;2;2;
78408;PMS5003;67697;50.750;-3.270;2023-07-31T08:10:55;5;5;
78408;PMS5003;67697;50.750;-3.270;2023-07-31T08:13:16;5;5;
78408;PMS5003;67697;50.750;-3.270;2023-07-31T08:15:41;4;4;
78408;PMS5003;67697;50.750;-3.270;2023-07-31T08:18:06;8;6;
78408;PMS5003;67697;50.750;-3.270;2023-07-31T08:20:32;5;5;
78408;PMS5003;67697;50.750;-3.270;2023-07-31T08:22:57;4;4;
78408;PMS5003;67697;50.750;-3.270;2023-07-31T08:25:23;4;4;
78408;PMS5003;67697;50.750;-3.270;2023-07-31T08:27:48;5;3;
78408;PMS5003;67697;50.750;-3.270;2023-07-31T08:32:40;4;4;
78408;PMS5003;67697;50.750;-3.270;2023-07-31T08:35:05;3;3;
78408;PMS5003;67697;50.750;-3.270;2023-07-31T08:37:30;3;2;
78408;PMS5003;67697;50.750;-3.270;2023-07-31T08:39:56;3;3;
78408;PMS5003;67697;50.750;-3.270;2023-07-31T08:42:21;4;4;
78408;PMS5003;67697;50.750;-3.270;2023-07-31T08:44:47;6;5;
78408;PMS5003;67697;50.750;-3.270;2023-07-31T08:47:12;5;4;
78408;PMS5003;67697;50.750;-3.270;2023-07-31T08:49:38;2;2;
78408;PMS5003;67697;50.750;-3.270;2023-07-31T08:52:03;2;2;
78408;PMS5003;67697;50.750;-3.270;2023-07-31T08:54:29;2;2;
78408;PMS5003;67697;50.750;-3.270;2023-07-31T08:56:54;3;3;
78408;PMS5003;67697;50.750;-3.270;2023-07-31T08:59:20;2;2;
78408;PMS5003;67697;50.750;-3.270;2023-07-31T09:01:46;3;3;
78408;PMS5003;67697;50.750;-3.270;2023-07-31T09:04:10;2;2;
78408;PMS5003;67697;50.750;-3.270;2023-07-31T09:06:36;2;2;
78408;PMS5003;67697;50.750;-3.270;2023-07-31T09:09:01;2;2;
78408;PMS5003;67697;50.750;-3.270;2023-07-31T09:11:27;5;3;
78408;PMS5003;67697;50.750;-3.270;2023-07-31T09:13:52;3;2;
78408;PMS5003;67697;50.750;-3.270;2023-07-31T09:16:18;3;3;
78408;PMS5003;67697;50.750;-3.270;2023-07-31T09:21:09;3;1;
78408;PMS5003;67697;50.750;-3.270;2023-07-31T09:23:40;2;2;
78408;PMS5003;67697;50.750;-3.270;2023-07-31T09:26:00;4;3;
78408;PMS5003;67697;50.750;-3.270;2023-07-31T09:28:30;3;3;
78408;PMS5003;67697;50.750;-3.270;2023-07-31T09:30:51;3;2;
78408;PMS5003;67697;50.750;-3.270;2023-07-31T09:33:17;1;1;
78408;PMS5003;67697;50.750;-3.270;2023-07-31T09:35:42;5;2;
78408;PMS5003;67697;50.750;-3.270;2023-07-31T09:38:08;4;3;
78408;PMS5003;67697;50.750;-3.270;2023-07-31T09:40:34;6;4;
78408;PMS5003;67697;50.750;-3.270;2023-07-31T09:42:59;4;4;
78408;PMS5003;67697;50.750;-3.270;2023-07-31T09:45:24;5;5;
78408;PMS5003;67697;50.750;-3.270;2023-07-31T09:47:49;4;4;
78408;PMS5003;67697;50.750;-3.270;2023-07-31T09:50:14;7;5;
78408;PMS5003;67697;50.750;-3.270;2023-07-31T09:52:40;8;7;
78408;PMS5003;67697;50.750;-3.270;2023-07-31T09:55:06;7;6;
78408;PMS5003;67697;50.750;-3.270;2023-07-31T09:57:31;9;8;
78408;PMS5003;67697;50.750;-3.270;2023-07-31T09:59:57;8;8;
78408;PMS5003;67697;50.750;-3.270;2023-07-31T10:02:22;10;9;
78408;PMS5003;67697;50.750;-3.270;2023-07-31T10:04:48;10;8;
78408;PMS5003;67697;50.750;-3.270;2023-07-31T10:07:13;9;8;
78408;PMS5003;67697;50.750;-3.270;2023-07-31T10:09:38;9;9;
78408;PMS5003;67697;50.750;-3.270;2023-07-31T10:12:05;9;9;
78408;PMS5003;67697;50.750;-3.270;2023-07-31T10:14:30;13;12;
78408;PMS5003;67697;50.750;-3.270;2023-07-31T10:16:56;11;9;
78408;PMS5003;67697;50.750;-3.270;2023-07-31T10:19:21;10;10;
78408;PMS5003;67697;50.750;-3.270;2023-07-31T10:21:46;12;11;
78408;PMS5003;67697;50.750;-3.270;2023-07-31T10:24:12;14;11;
78408;PMS5003;67697;50.750;-3.270;2023-07-31T10:26:37;12;11;
78408;PMS5003;67697;50.750;-3.270;2023-07-31T10:29:04;14;14;
78408;PMS5003;67697;50.750;-3.270;2023-07-31T10:31:28;12;12;
78408;PMS5003;67697;50.750;-3.270;2023-07-31T10:33:54;12;11;
78408;PMS5003;67697;50.750;-3.270;2023-07-31T10:36:20;12;10;
78408;PMS5003;67697;50.750;-3.270;2023-07-31T10:38:46;13;11;
78408;PMS5003;67697;50.750;-3.270;2023-07-31T10:41:11;15;12;
78408;PMS5003;67697;50.750;-3.270;2023-07-31T10:43:36;14;12;
78408;PMS5003;67697;50.750;-3.270;2023-07-31T10:46:01;11;11;
78408;PMS5003;67697;50.750;-3.270;2023-07-31T10:48:27;13;13;
78408;PMS5003;67697;50.750;-3.270;2023-07-31T10:50:54;12;11;
78408;PMS5003;67697;50.750;-3.270;2023-07-31T10:53:23;13;13;
78408;PMS5003;67697;50.750;-3.270;2023-07-31T10:55:43;14;13;
78408;PMS5003;67697;50.750;-3.270;2023-07-31T10:58:09;11;10;
78408;PMS5003;67697;50.750;-3.270;2023-07-31T11:00:36;11;10;
78408;PMS5003;67697;50.750;-3.270;2023-07-31T11:03:02;12;11;
78408;PMS5003;67697;50.750;-3.270;2023-07-31T11:07:50;10;9;
78408;PMS5003;67697;50.750;-3.270;2023-07-31T11:10:16;14;11;
78408;PMS5003;67697;50.750;-3.270;2023-07-31T11:12:41;12;11;
78408;PMS5003;67697;50.750;-3.270;2023-07-31T11:15:07;12;11;
78408;PMS5003;67697;50.750;-3.270;2023-07-31T11:17:32;12;10;
78408;PMS5003;67697;50.750;-3.270;2023-07-31T11:19:57;14;12;
78408;PMS5003;67697;50.750;-3.270;2023-07-31T11:22:23;11;10;
78408;PMS5003;67697;50.750;-3.270;2023-07-31T11:24:48;13;10;
78408;PMS5003;67697;50.750;-3.270;2023-07-31T11:27:13;11;9;
78408;PMS5003;67697;50.750;-3.270;2023-07-31T11:29:39;16;14;
78408;PMS5003;67697;50.750;-3.270;2023-07-31T11:34:30;14;11;
78408;PMS5003;67697;50.750;-3.270;2023-07-31T11:36:55;14;13;
78408;PMS5003;67697;50.750;-3.270;2023-07-31T11:39:21;15;13;
78408;PMS5003;67697;50.750;-3.270;2023-07-31T11:41:46;9;8;
78408;PMS5003;67697;50.750;-3.270;2023-07-31T11:44:11;12;12;
78408;PMS5003;67697;50.750;-3.270;2023-07-31T11:46:37;14;10;
78408;PMS5003;67697;50.750;-3.270;2023-07-31T11:49:03;12;9;
78408;PMS5003;67697;50.750;-3.270;2023-07-31T11:51:28;13;11;
78408;PMS5003;67697;50.750;-3.270;2023-07-31T11:53:54;13;13;
78408;PMS5003;67697;50.750;-3.270;2023-07-31T11:56:19;13;12;
78408;PMS5003;67697;50.750;-3.270;2023-07-31T11:58:44;15;14;
78408;PMS5003;67697;50.750;-3.270;2023-07-31T12:01:09;12;11;
78408;PMS5003;67697;50.750;-3.270;2023-07-31T12:03:34;14;11;
78408;PMS5003;67697;50.750;-3.270;2023-07-31T12:06:00;14;11;
78408;PMS5003;67697;50.750;-3.270;2023-07-31T12:08:26;12;10;
78408;PMS5003;67697;50.750;-3.270;2023-07-31T12:10:52;14;13;
78408;PMS5003;67697;50.750;-3.270;2023-07-31T12:13:20;11;10;
78408;PMS5003;67697;50.750;-3.270;2023-07-31T12:15:42;12;12;
78408;PMS5003;67697;50.750;-3.270;2023-07-31T12:18:08;18;12;
78408;PMS5003;67697;50.750;-3.270;2023-07-31T12:20:33;13;11;
78408;PMS5003;67697;50.750;-3.270;2023-07-31T12:22:58;10;10;
78408;PMS5003;67697;50.750;-3.270;2023-07-31T12:25:28;9;9;
78408;PMS5003;67697;50.750;-3.270;2023-07-31T12:27:50;9;9;
78408;PMS5003;67697;50.750;-3.270;2023-07-31T12:32:40;18;16;
78408;PMS5003;67697;50.750;-3.270;2023-07-31T12:35:06;9;9;
78408;PMS5003;67697;50.750;-3.270;2023-07-31T12:37:31;12;10;
78408;PMS5003;67697;50.750;-3.270;2023-07-31T12:39:56;12;10;
78408;PMS5003;67697;50.750;-3.270;2023-07-31T12:42:22;14;13;
78408;PMS5003;67697;50.750;-3.270;2023-07-31T12:44:47;12;12;
78408;PMS5003;67697;50.750;-3.270;2023-07-31T12:47:12;14;11;
78408;PMS5003;67697;50.750;-3.270;2023-07-31T12:49:43;15;12;
78408;PMS5003;67697;50.750;-3.270;2023-07-31T12:52:03;11;11;
78408;PMS5003;67697;50.750;-3.270;2023-07-31T12:54:28;11;10;
78408;PMS5003;67697;50.750;-3.270;2023-07-31T12:56:54;17;11;
78408;PMS5003;67697;50.750;-3.270;2023-07-31T12:59:19;12;12;
78408;PMS5003;67697;50.750;-3.270;2023-07-31T13:01:45;14;11;
78408;PMS5003;67697;50.750;-3.270;2023-07-31T13:04:10;12;11;
78408;PMS5003;67697;50.750;-3.270;2023-07-31T13:06:36;10;7;
78408;PMS5003;67697;50.750;-3.270;2023-07-31T13:09:06;9;9;
78408;PMS5003;67697;50.750;-3.270;2023-07-31T13:11:26;11;10;
78408;PMS5003;67697;50.750;-3.270;2023-07-31T13:13:52;11;11;
78408;PMS5003;67697;50.750;-3.270;2023-07-31T13:16:18;11;9;
78408;PMS5003;67697;50.750;-3.270;2023-07-31T13:18:43;11;11;
78408;PMS5003;67697;50.750;-3.270;2023-07-31T13:21:09;10;10;
78408;PMS5003;67697;50.750;-3.270;2023-07-31T13:23:34;13;11;
78408;PMS5003;67697;50.750;-3.270;2023-07-31T13:25:59;12;10;
78408;PMS5003;67697;50.750;-3.270;2023-07-31T13:28:25;12;10;
78408;PMS5003;67697;50.750;-3.270;2023-07-31T13:30:51;13;12;
78408;PMS5003;67697;50.750;-3.270;2023-07-31T13:33:16;14;11;
78408;PMS5003;67697;50.750;-3.270;2023-07-31T13:35:42;13;11;
78408;PMS5003;67697;50.750;-3.270;2023-07-31T13:38:07;13;11;
78408;PMS5003;67697;50.750;-3.270;2023-07-31T13:40:38;10;10;
78408;PMS5003;67697;50.750;-3.270;2023-07-31T13:42:59;13;9;
78408;PMS5003;67697;50.750;-3.270;2023-07-31T13:45:24;12;11;
78408;PMS5003;67697;50.750;-3.270;2023-07-31T13:47:49;12;10;
78408;PMS5003;67697;50.750;-3.270;2023-07-31T13:50:14;13;13;
78408;PMS5003;67697;50.750;-3.270;2023-07-31T13:52:40;9;9;
78408;PMS5003;67697;50.750;-3.270;2023-07-31T13:55:06;12;11;
78408;PMS5003;67697;50.750;-3.270;2023-07-31T13:57:31;9;8;
78408;PMS5003;67697;50.750;-3.270;2023-07-31T13:59:56;9;7;
78408;PMS5003;67697;50.750;-3.270;2023-07-31T14:02:21;13;12;
78408;PMS5003;67697;50.750;-3.270;2023-07-31T14:04:47;9;9;
78408;PMS5003;67697;50.750;-3.270;2023-07-31T14:07:12;11;11;
78408;PMS5003;67697;50.750;-3.270;2023-07-31T14:09:37;13;11;
78408;PMS5003;67697;50.750;-3.270;2023-07-31T14:12:03;8;8;
78408;PMS5003;67697;50.750;-3.270;2023-07-31T14:14:28;11;11;
78408;PMS5003;67697;50.750;-3.270;2023-07-31T14:16:54;12;10;
78408;PMS5003;67697;50.750;-3.270;2023-07-31T14:19:19;9;8;
78408;PMS5003;67697;50.750;-3.270;2023-07-31T14:21:45;9;9;
78408;PMS5003;67697;50.750;-3.270;2023-07-31T14:24:10;11;10;
78408;PMS5003;67697;50.750;-3.270;2023-07-31T14:26:36;8;8;
78408;PMS5003;67697;50.750;-3.270;2023-07-31T14:29:01;9;9;
78408;PMS5003;67697;50.750;-3.270;2023-07-31T14:31:27;9;9;
78408;PMS5003;67697;50.750;-3.270;2023-07-31T14:33:52;9;7;
78408;PMS5003;67697;50.750;-3.270;2023-07-31T14:36:18;11;8;
78408;PMS5003;67697;50.750;-3.270;2023-07-31T14:38:43;11;9;
78408;PMS5003;67697;50.750;-3.270;2023-07-31T14:41:09;12;10;
78408;PMS5003;67697;50.750;-3.270;2023-07-31T14:43:34;10;7;
78408;PMS5003;67697;50.750;-3.270;2023-07-31T14:46:00;7;7;
78408;PMS5003;67697;50.750;-3.270;2023-07-31T14:48:25;7;6;
78408;PMS5003;67697;50.750;-3.270;2023-07-31T14:50:51;12;10;
78408;PMS5003;67697;50.750;-3.270;2023-07-31T14:53:16;8;8;
78408;PMS5003;67697;50.750;-3.270;2023-07-31T14:55:42;9;8;
78408;PMS5003;67697;50.750;-3.270;2023-07-31T14:58:07;8;6;
78408;PMS5003;67697;50.750;-3.270;2023-07-31T15:00:33;7;7;
78408;PMS5003;67697;50.750;-3.270;2023-07-31T15:02:58;9;8;
78408;PMS5003;67697;50.750;-3.270;2023-07-31T15:05:23;8;6;
78408;PMS5003;67697;50.750;-3.270;2023-07-31T15:07:49;7;7;
78408;PMS5003;67697;50.750;-3.270;2023-07-31T15:10:15;8;7;
78408;PMS5003;67697;50.750;-3.270;2023-07-31T15:12:41;11;9;
78408;PMS5003;67697;50.750;-3.270;2023-07-31T15:15:06;7;7;
78408;PMS5003;67697;50.750;-3.270;2023-07-31T15:17:30;5;5;
78408;PMS5003;67697;50.750;-3.270;2023-07-31T15:19:56;9;7;
78408;PMS5003;67697;50.750;-3.270;2023-07-31T15:22:21;6;6;
78408;PMS5003;67697;50.750;-3.270;2023-07-31T15:24:47;6;6;
78408;PMS5003;67697;50.750;-3.270;2023-07-31T15:27:12;8;8;
78408;PMS5003;67697;50.750;-3.270;2023-07-31T15:29:38;6;6;
78408;PMS5003;67697;50.750;-3.270;2023-07-31T15:32:03;8;6;
78408;PMS5003;67697;50.750;-3.270;2023-07-31T15:34:28;7;6;
78408;PMS5003;67697;50.750;-3.270;2023-07-31T15:36:53;11;9;
78408;PMS5003;67697;50.750;-3.270;2023-07-31T15:39:19;7;7;
78408;PMS5003;67697;50.750;-3.270;2023-07-31T15:41:44;7;6;
78408;PMS5003;67697;50.750;-3.270;2023-07-31T15:46:36;7;6;
78408;PMS5003;67697;50.750;-3.270;2023-07-31T15:49:01;6;6;
78408;PMS5003;67697;50.750;-3.270;2023-07-31T15:51:26;5;5;
78408;PMS5003;67697;50.750;-3.270;2023-07-31T15:53:52;4;4;
78408;PMS5003;67697;50.750;-3.270;2023-07-31T15:56:17;8;6;
78408;PMS5003;67697;50.750;-3.270;2023-07-31T15:58:43;7;5;
78408;PMS5003;67697;50.750;-3.270;2023-07-31T16:01:08;7;4;
78408;PMS5003;67697;50.750;-3.270;2023-07-31T16:03:33;7;7;
78408;PMS5003;67697;50.750;-3.270;2023-07-31T16:05:59;12;9;
78408;PMS5003;67697;50.750;-3.270;2023-07-31T16:08:24;8;5;
78408;PMS5003;67697;50.750;-3.270;2023-07-31T16:10:50;7;5;
78408;PMS5003;67697;50.750;-3.270;2023-07-31T16:13:16;8;6;
78408;PMS5003;67697;50.750;-3.270;2023-07-31T16:15:41;5;5;
78408;PMS5003;67697;50.750;-3.270;2023-07-31T16:18:06;4;4;
78408;PMS5003;67697;50.750;-3.270;2023-07-31T16:20:32;7;6;
78408;PMS5003;67697;50.750;-3.270;2023-07-31T16:22:57;7;6;
78408;PMS5003;67697;50.750;-3.270;2023-07-31T16:25:23;5;5;
78408;PMS5003;67697;50.750;-3.270;2023-07-31T16:27:48;6;6;
78408;PMS5003;67697;50.750;-3.270;2023-07-31T16:30:13;5;5;
78408;PMS5003;67697;50.750;-3.270;2023-07-31T16:32:39;6;6;
78408;PMS5003;67697;50.750;-3.270;2023-07-31T16:35:04;5;5;
78408;PMS5003;67697;50.750;-3.270;2023-07-31T16:37:30;8;6;